Time,TemperatureF,DewpointF,PressureIn,WindDirection,WindDirectionDegrees,WindSpeedMPH,WindSpeedGustMPH,Humidity,HourlyPrecipIn,Conditions,Clouds,dailyrainin,SoftwareType,DateUTC
2013-04-30 00:00:00,62.0,18.0,29.39,NW,323,0.0,-999.0,18,-99.99,,,0.00,weatherlink.com 1.10,2013-04-30 06:00:00,
2013-04-30 00:15:00,60.4,23.0,29.39,NW,323,0.0,-999.0,24,-99.99,,,0.00,weatherlink.com 1.10,2013-04-30 06:15:00,
2013-04-30 00:30:00,58.4,23.0,29.41,NW,323,0.0,-999.0,25,-99.99,,,0.00,weatherlink.com 1.10,2013-04-30 06:30:00,
2013-04-30 00:45:00,57.0,22.0,29.42,NW,323,0.0,-999.0,26,-99.99,,,0.00,weatherlink.com 1.10,2013-04-30 06:45:00,
2013-04-30 01:00:00,56.0,23.0,29.42,NW,323,0.0,-999.0,28,-99.99,,,0.00,weatherlink.com 1.10,2013-04-30 07:00:00,
2013-04-30 01:15:00,54.8,23.0,29.41,NW,323,0.0,-999.0,29,-99.99,,,0.00,weatherlink.com 1.10,2013-04-30 07:15:00,
2013-04-30 01:30:00,53.9,21.0,29.42,NW,323,0.0,-999.0,28,-99.99,,,0.00,weatherlink.com 1.10,2013-04-30 07:30:00,
2013-04-30 01:45:00,53.2,21.0,29.41,NW,323,0.0,-999.0,28,-99.99,,,0.00,weatherlink.com 1.10,2013-04-30 07:45:00,
2013-04-30 02:00:00,52.3,21.0,29.42,NW,323,0.0,-999.0,29,-99.99,,,0.00,weatherlink.com 1.10,2013-04-30 08:00:00,
2013-04-30 02:15:00,51.6,24.0,29.41,NW,323,0.0,-999.0,34,-99.99,,,0.00,weatherlink.com 1.10,2013-04-30 08:15:00,
2013-04-30 02:30:00,50.8,29.0,29.44,West,272,0.0,-999.0,43,-99.99,,,0.00,weatherlink.com 1.10,2013-04-30 08:30:00,
2013-04-30 02:45:00,50.8,25.0,29.43,West,272,0.0,-999.0,36,-99.99,,,0.00,weatherlink.com 1.10,2013-04-30 08:45:00,
2013-04-30 03:00:00,50.5,22.0,29.44,West,274,0.0,-999.0,33,-99.99,,,0.00,weatherlink.com 1.10,2013-04-30 09:00:00,
2013-04-30 03:15:00,49.9,24.0,29.43,West,274,0.0,-999.0,36,-99.99,,,0.00,weatherlink.com 1.10,2013-04-30 09:15:00,
2013-04-30 03:31:00,49.4,27.0,29.44,West,274,0.0,-999.0,42,-99.99,,,0.00,weatherlink.com 1.10,2013-04-30 09:31:00,
2013-04-30 03:46:00,48.6,25.0,29.44,West,274,0.0,-999.0,40,-99.99,,,0.00,weatherlink.com 1.10,2013-04-30 09:46:00,
2013-04-30 04:01:00,47.9,24.0,29.44,West,274,0.0,-999.0,39,-99.99,,,0.00,weatherlink.com 1.10,2013-04-30 10:01:00,
2013-04-30 04:16:00,47.3,23.0,29.46,West,274,0.0,-999.0,39,-99.99,,,0.00,weatherlink.com 1.10,2013-04-30 10:16:00,
2013-04-30 04:31:00,47.1,21.0,29.47,West,274,0.0,-999.0,36,-99.99,,,0.00,weatherlink.com 1.10,2013-04-30 10:31:00,
2013-04-30 04:46:00,47.4,23.0,29.47,West,272,0.0,-999.0,38,-99.99,,,0.00,weatherlink.com 1.10,2013-04-30 10:46:00,
2013-04-30 05:01:00,47.1,23.0,29.47,West,272,0.0,-999.0,39,-99.99,,,0.00,weatherlink.com 1.10,2013-04-30 11:01:00,
2013-04-30 05:16:00,46.5,23.0,29.49,West,272,0.0,-999.0,40,-99.99,,,0.00,weatherlink.com 1.10,2013-04-30 11:16:00,
2013-04-30 05:31:00,45.8,23.0,29.51,West,272,0.0,-999.0,40,-99.99,,,0.00,weatherlink.com 1.10,2013-04-30 11:31:00,
2013-04-30 05:46:00,45.4,23.0,29.51,West,274,0.0,-999.0,42,-99.99,,,0.00,weatherlink.com 1.10,2013-04-30 11:46:00,
2013-04-30 06:01:00,45.4,24.0,29.52,West,274,0.0,-999.0,43,-99.99,,,0.00,weatherlink.com 1.10,2013-04-30 12:01:00,
2013-04-30 06:16:00,45.2,25.0,29.54,West,274,0.0,-999.0,46,-99.99,,,0.00,weatherlink.com 1.10,2013-04-30 12:16:00,
2013-04-30 06:31:00,44.9,28.0,29.54,West,274,0.0,-999.0,52,-99.99,,,0.00,weatherlink.com 1.10,2013-04-30 12:31:00,
2013-04-30 06:46:00,44.6,29.0,29.55,West,274,0.0,-999.0,54,-99.99,,,0.00,weatherlink.com 1.10,2013-04-30 12:46:00,
2013-04-30 07:01:00,44.5,29.0,29.56,West,274,0.0,-999.0,55,-99.99,,,0.00,weatherlink.com 1.10,2013-04-30 13:01:00,
2013-04-30 07:16:00,45.2,30.0,29.57,West,274,0.0,-999.0,55,-99.99,,,0.00,weatherlink.com 1.10,2013-04-30 13:16:00,
2013-04-30 07:31:00,46.0,30.0,29.56,West,274,0.0,-999.0,53,-99.99,,,0.00,weatherlink.com 1.10,2013-04-30 13:31:00,
2013-04-30 07:46:00,47.3,32.0,29.57,West,274,0.0,-999.0,55,-99.99,,,0.00,weatherlink.com 1.10,2013-04-30 13:46:00,
2013-04-30 08:01:00,49.5,30.0,29.56,West,274,0.0,-999.0,48,-99.99,,,0.00,weatherlink.com 1.10,2013-04-30 14:01:00,
2013-04-30 08:16:00,52.5,29.0,29.58,West,274,0.0,-999.0,41,-99.99,,,0.00,weatherlink.com 1.10,2013-04-30 14:16:00,
2013-04-30 08:31:00,56.5,28.0,29.56,West,272,0.0,-999.0,33,-99.99,,,0.00,weatherlink.com 1.10,2013-04-30 14:31:00,
2013-04-30 08:46:00,59.9,26.0,29.55,West,268,0.0,-999.0,27,-99.99,,,0.00,weatherlink.com 1.10,2013-04-30 14:46:00,
2013-04-30 09:01:00,62.4,26.0,29.54,West,268,0.0,-999.0,25,-99.99,,,0.00,weatherlink.com 1.10,2013-04-30 15:01:00,
2013-04-30 09:16:00,65.5,26.0,29.54,West,267,0.0,-999.0,22,-99.99,,,0.00,weatherlink.com 1.10,2013-04-30 15:16:00,
2013-04-30 09:31:00,68.1,24.0,29.53,West,264,0.0,-999.0,19,-99.99,,,0.00,weatherlink.com 1.10,2013-04-30 15:31:00,
2013-04-30 09:46:00,69.6,24.0,29.52,WNW,298,0.0,-999.0,18,-99.99,,,0.00,weatherlink.com 1.10,2013-04-30 15:46:00,
2013-04-30 10:01:00,70.9,27.0,29.51,WNW,298,0.0,-999.0,19,-99.99,,,0.00,weatherlink.com 1.10,2013-04-30 16:01:00,
2013-04-30 10:16:00,73.0,23.0,29.52,SSW,198,0.0,-999.0,15,-99.99,,,0.00,weatherlink.com 1.10,2013-04-30 16:16:00,
2013-04-30 10:31:00,74.4,22.0,29.51,SSW,198,0.0,-999.0,14,-99.99,,,0.00,weatherlink.com 1.10,2013-04-30 16:31:00,
2013-04-30 10:46:00,75.8,21.0,29.51,East,97,0.0,-999.0,13,-99.99,,,0.00,weatherlink.com 1.10,2013-04-30 16:46:00,
2013-04-30 11:01:00,76.8,20.0,29.50,SE,131,0.0,-999.0,12,-99.99,,,0.00,weatherlink.com 1.10,2013-04-30 17:01:00,
2013-04-30 11:17:00,78.6,20.0,29.49,ESE,107,0.0,-999.0,11,-99.99,,,0.00,weatherlink.com 1.10,2013-04-30 17:17:00,
2013-04-30 11:32:00,80.5,19.0,29.48,SE,133,1.0,-999.0,10,-99.99,,,0.00,weatherlink.com 1.10,2013-04-30 17:32:00,
2013-04-30 11:47:00,81.6,20.0,29.47,NW,322,1.0,-999.0,10,-99.99,,,0.00,weatherlink.com 1.10,2013-04-30 17:47:00,
2013-04-30 12:02:00,82.2,18.0,29.45,SSW,198,0.0,-999.0,9,-99.99,,,0.00,weatherlink.com 1.10,2013-04-30 18:02:00,
2013-04-30 12:17:00,84.7,22.0,29.46,SSW,192,0.0,-999.0,10,-99.99,,,0.00,weatherlink.com 1.10,2013-04-30 18:17:00,
2013-04-30 12:32:00,85.9,21.0,29.43,WNW,287,0.0,-999.0,9,-99.99,,,0.00,weatherlink.com 1.10,2013-04-30 18:32:00,
2013-04-30 12:47:00,87.0,19.0,29.42,SE,143,1.0,-999.0,8,-99.99,,,0.00,weatherlink.com 1.10,2013-04-30 18:47:00,
2013-04-30 13:02:00,87.4,22.0,29.41,SE,128,1.0,-999.0,9,-99.99,,,0.00,weatherlink.com 1.10,2013-04-30 19:02:00,
2013-04-30 13:17:00,87.6,16.0,29.42,NW,308,5.0,-999.0,7,-99.99,,,0.00,weatherlink.com 1.10,2013-04-30 19:17:00,
2013-04-30 13:32:00,87.0,19.0,29.43,WSW,258,0.0,-999.0,8,-99.99,,,0.00,weatherlink.com 1.10,2013-04-30 19:32:00,
2013-04-30 13:47:00,87.8,16.0,29.41,ENE,68,1.0,-999.0,7,-99.99,,,0.00,weatherlink.com 1.10,2013-04-30 19:47:00,
2013-04-30 14:02:00,89.0,17.0,29.40,South,182,5.0,-999.0,7,-99.99,,,0.00,weatherlink.com 1.10,2013-04-30 20:02:00,
2013-04-30 14:17:00,88.2,17.0,29.41,SW,230,1.0,-999.0,7,-99.99,,,0.00,weatherlink.com 1.10,2013-04-30 20:17:00,
2013-04-30 14:32:00,88.0,16.0,29.41,West,272,3.0,-999.0,7,-99.99,,,0.00,weatherlink.com 1.10,2013-04-30 20:32:00,
2013-04-30 14:47:00,87.4,16.0,29.41,SSW,192,2.0,-999.0,7,-99.99,,,0.00,weatherlink.com 1.10,2013-04-30 20:47:00,
2013-04-30 15:02:00,87.6,16.0,29.41,SW,229,11.0,-999.0,7,-99.99,,,0.00,weatherlink.com 1.10,2013-04-30 21:02:00,
2013-04-30 15:17:00,87.6,16.0,29.41,SSW,199,2.0,-999.0,7,-99.99,,,0.00,weatherlink.com 1.10,2013-04-30 21:17:00,
2013-04-30 15:32:00,88.6,20.0,29.40,South,179,0.0,-999.0,8,-99.99,,,0.00,weatherlink.com 1.10,2013-04-30 21:32:00,
2013-04-30 15:47:00,88.2,17.0,29.40,SSW,199,3.0,-999.0,7,-99.99,,,0.00,weatherlink.com 1.10,2013-04-30 21:47:00,
2013-04-30 16:02:00,88.2,17.0,29.39,WNW,288,1.0,-999.0,7,-99.99,,,0.00,weatherlink.com 1.10,2013-04-30 22:02:00,
2013-04-30 16:17:00,88.2,17.0,29.38,SSW,203,5.0,-999.0,7,-99.99,,,0.00,weatherlink.com 1.10,2013-04-30 22:17:00,
2013-04-30 16:32:00,88.0,13.0,29.39,WSW,237,3.0,-999.0,6,-99.99,,,0.00,weatherlink.com 1.10,2013-04-30 22:32:00,
2013-04-30 16:47:00,88.0,16.0,29.38,South,191,2.0,-999.0,7,-99.99,,,0.00,weatherlink.com 1.10,2013-04-30 22:47:00,
2013-04-30 17:02:00,88.4,13.0,29.38,South,191,5.0,-999.0,6,-99.99,,,0.00,weatherlink.com 1.10,2013-04-30 23:02:00,
2013-04-30 17:17:00,87.6,13.0,29.39,WNW,285,1.0,-999.0,6,-99.99,,,0.00,weatherlink.com 1.10,2013-04-30 23:17:00,
2013-04-30 17:32:00,86.7,12.0,29.39,South,189,5.0,-999.0,6,-99.99,,,0.00,weatherlink.com 1.10,2013-04-30 23:32:00,
2013-04-30 17:47:00,86.1,11.0,29.40,WNW,296,0.0,-999.0,6,-99.99,,,0.00,weatherlink.com 1.10,2013-04-30 23:47:00,
2013-04-30 18:02:00,85.5,11.0,29.39,WSW,250,2.0,-999.0,6,-99.99,,,0.00,weatherlink.com 1.10,2013-05-01 00:02:00,
2013-04-30 18:17:00,84.7,10.0,29.40,WSW,240,2.0,-999.0,6,-99.99,,,0.00,weatherlink.com 1.10,2013-05-01 00:17:00,
2013-04-30 18:32:00,83.8,13.0,29.41,South,171,0.0,-999.0,7,-99.99,,,0.00,weatherlink.com 1.10,2013-05-01 00:32:00,
2013-04-30 18:47:00,83.6,10.0,29.41,SW,229,2.0,-999.0,6,-99.99,,,0.00,weatherlink.com 1.10,2013-05-01 00:47:00,
2013-04-30 19:02:00,82.8,9.0,29.41,ENE,61,4.0,-999.0,6,-99.99,,,0.00,weatherlink.com 1.10,2013-05-01 01:02:00,
2013-04-30 19:17:00,81.6,12.0,29.40,NW,313,2.0,-999.0,7,-99.99,,,0.00,weatherlink.com 1.10,2013-05-01 01:17:00,
2013-04-30 19:32:00,81.1,11.0,29.40,NW,322,2.0,-999.0,7,-99.99,,,0.00,weatherlink.com 1.10,2013-05-01 01:32:00,
2013-04-30 19:47:00,80.3,11.0,29.41,NNW,336,2.0,-999.0,7,-99.99,,,0.00,weatherlink.com 1.10,2013-05-01 01:47:00,
2013-04-30 20:02:00,79.4,10.0,29.42,NW,305,1.0,-999.0,7,-99.99,,,0.00,weatherlink.com 1.10,2013-05-01 02:02:00,
2013-04-30 20:17:00,78.1,9.0,29.37,NW,320,0.0,-999.0,7,-99.99,,,0.00,weatherlink.com 1.10,2013-05-01 02:17:00,
2013-04-30 20:32:00,76.8,11.0,29.38,WNW,302,1.0,-999.0,8,-99.99,,,0.00,weatherlink.com 1.10,2013-05-01 02:32:00,
2013-04-30 20:47:00,75.8,10.0,29.39,NW,313,1.0,-999.0,8,-99.99,,,0.00,weatherlink.com 1.10,2013-05-01 02:47:00,
2013-04-30 21:02:00,74.7,12.0,29.41,WNW,291,0.0,-999.0,9,-99.99,,,0.00,weatherlink.com 1.10,2013-05-01 03:02:00,
2013-04-30 21:17:00,73.9,11.0,29.37,WNW,282,1.0,-999.0,9,-99.99,,,0.00,weatherlink.com 1.10,2013-05-01 03:17:00,
2013-04-30 21:32:00,73.0,11.0,29.39,NW,316,0.0,-999.0,9,-99.99,,,0.00,weatherlink.com 1.10,2013-05-01 03:32:00,
2013-04-30 21:47:00,72.5,10.0,29.39,WNW,302,0.0,-999.0,9,-99.99,,,0.00,weatherlink.com 1.10,2013-05-01 03:47:00,
2013-04-30 22:02:00,72.1,10.0,29.40,WNW,289,0.0,-999.0,9,-99.99,,,0.00,weatherlink.com 1.10,2013-05-01 04:02:00,
2013-04-30 22:17:00,71.5,12.0,29.38,WNW,291,0.0,-999.0,10,-99.99,,,0.00,weatherlink.com 1.10,2013-05-01 04:17:00,
2013-04-30 22:32:00,71.3,12.0,29.38,SSW,212,0.0,-999.0,10,-99.99,,,0.00,weatherlink.com 1.10,2013-05-01 04:32:00,
2013-04-30 22:47:00,69.6,15.0,29.39,SSW,212,0.0,-999.0,12,-99.99,,,0.00,weatherlink.com 1.10,2013-05-01 04:47:00,
2013-04-30 23:02:00,67.4,15.0,29.40,East,83,0.0,-999.0,13,-99.99,,,0.00,weatherlink.com 1.10,2013-05-01 05:02:00,
2013-04-30 23:17:00,66.3,16.0,29.39,East,86,0.0,-999.0,14,-99.99,,,0.00,weatherlink.com 1.10,2013-05-01 05:17:00,
2013-04-30 23:32:00,66.4,16.0,29.39,East,95,0.0,-999.0,14,-99.99,,,0.00,weatherlink.com 1.10,2013-05-01 05:32:00,
2013-04-30 23:47:00,64.8,17.0,29.41,East,95,0.0,-999.0,16,-99.99,,,0.00,weatherlink.com 1.10,2013-05-01 05:47:00,